sensor_id;sensor_type;location;lat;lon;timestamp;P1;durP1;ratioP1;P2;durP2;ratioP2
17424;SDS011;8830;50.978;5.058;2023-03-14T00:00:04;4.73;;;1.10;;
17424;SDS011;8830;50.978;5.058;2023-03-14T00:02:34;4.77;;;1.30;;
17424;SDS011;8830;50.978;5.058;2023-03-14T00:05:02;5.03;;;1.00;;
17424;SDS011;8830;50.978;5.058;2023-03-14T00:07:32;3.03;;;0.90;;
17424;SDS011;8830;50.978;5.058;2023-03-14T00:10:01;6.13;;;1.00;;
17424;SDS011;8830;50.978;5.058;2023-03-14T00:12:29;2.67;;;0.80;;
17424;SDS011;8830;50.978;5.058;2023-03-14T00:14:57;3.43;;;1.03;;
17424;SDS011;8830;50.978;5.058;2023-03-14T00:17:25;4.50;;;1.57;;
17424;SDS011;8830;50.978;5.058;2023-03-14T00:19:53;6.23;;;1.27;;
17424;SDS011;8830;50.978;5.058;2023-03-14T00:22:21;3.13;;;0.93;;
17424;SDS011;8830;50.978;5.058;2023-03-14T00:24:48;4.13;;;1.20;;
17424;SDS011;8830;50.978;5.058;2023-03-14T00:27:15;3.23;;;0.80;;
17424;SDS011;8830;50.978;5.058;2023-03-14T00:29:42;4.87;;;1.20;;
17424;SDS011;8830;50.978;5.058;2023-03-14T00:32:09;4.77;;;1.00;;
17424;SDS011;8830;50.978;5.058;2023-03-14T00:34:37;2.83;;;1.07;;
17424;SDS011;8830;50.978;5.058;2023-03-14T00:37:06;6.83;;;1.30;;
17424;SDS011;8830;50.978;5.058;2023-03-14T00:39:33;3.67;;;1.13;;
17424;SDS011;8830;50.978;5.058;2023-03-14T00:42:00;5.87;;;1.10;;
17424;SDS011;8830;50.978;5.058;2023-03-14T00:44:27;4.00;;;1.27;;
17424;SDS011;8830;50.978;5.058;2023-03-14T00:46:54;2.77;;;1.40;;
17424;SDS011;8830;50.978;5.058;2023-03-14T00:49:22;8.90;;;1.53;;
17424;SDS011;8830;50.978;5.058;2023-03-14T00:51:49;8.50;;;1.70;;
17424;SDS011;8830;50.978;5.058;2023-03-14T00:54:18;2.53;;;0.93;;
17424;SDS011;8830;50.978;5.058;2023-03-14T00:56:45;5.90;;;1.40;;
17424;SDS011;8830;50.978;5.058;2023-03-14T00:59:12;7.13;;;2.17;;
17424;SDS011;8830;50.978;5.058;2023-03-14T01:01:40;3.23;;;0.90;;
17424;SDS011;8830;50.978;5.058;2023-03-14T01:04:08;6.63;;;1.70;;
17424;SDS011;8830;50.978;5.058;2023-03-14T01:06:35;6.67;;;1.40;;
17424;SDS011;8830;50.978;5.058;2023-03-14T01:09:02;6.87;;;1.20;;
17424;SDS011;8830;50.978;5.058;2023-03-14T01:11:32;4.37;;;1.63;;
17424;SDS011;8830;50.978;5.058;2023-03-14T01:14:00;4.23;;;1.13;;
17424;SDS011;8830;50.978;5.058;2023-03-14T01:16:29;4.17;;;0.90;;
17424;SDS011;8830;50.978;5.058;2023-03-14T01:18:57;3.67;;;1.20;;
17424;SDS011;8830;50.978;5.058;2023-03-14T01:21:25;5.07;;;1.00;;
17424;SDS011;8830;50.978;5.058;2023-03-14T01:23:55;7.63;;;2.07;;
17424;SDS011;8830;50.978;5.058;2023-03-14T01:26:23;4.63;;;1.17;;
17424;SDS011;8830;50.978;5.058;2023-03-14T01:28:54;5.60;;;1.40;;
17424;SDS011;8830;50.978;5.058;2023-03-14T01:31:22;5.90;;;1.50;;
17424;SDS011;8830;50.978;5.058;2023-03-14T01:33:49;5.37;;;1.33;;
17424;SDS011;8830;50.978;5.058;2023-03-14T01:36:17;6.53;;;1.80;;
17424;SDS011;8830;50.978;5.058;2023-03-14T01:38:44;7.07;;;1.80;;
17424;SDS011;8830;50.978;5.058;2023-03-14T01:41:13;5.70;;;1.70;;
17424;SDS011;8830;50.978;5.058;2023-03-14T01:43:41;6.27;;;1.77;;
17424;SDS011;8830;50.978;5.058;2023-03-14T01:46:19;5.03;;;1.47;;
17424;SDS011;8830;50.978;5.058;2023-03-14T01:48:53;9.37;;;1.50;;
17424;SDS011;8830;50.978;5.058;2023-03-14T01:51:27;5.63;;;1.43;;
17424;SDS011;8830;50.978;5.058;2023-03-14T01:54:01;3.20;;;1.50;;
17424;SDS011;8830;50.978;5.058;2023-03-14T01:56:32;4.97;;;1.30;;
17424;SDS011;8830;50.978;5.058;2023-03-14T01:59:00;5.97;;;1.60;;
17424;SDS011;8830;50.978;5.058;2023-03-14T02:01:34;6.47;;;1.77;;
17424;SDS011;8830;50.978;5.058;2023-03-14T02:04:02;7.00;;;1.87;;
17424;SDS011;8830;50.978;5.058;2023-03-14T02:06:34;6.70;;;1.83;;
17424;SDS011;8830;50.978;5.058;2023-03-14T02:09:09;8.60;;;1.90;;
17424;SDS011;8830;50.978;5.058;2023-03-14T02:11:36;9.83;;;1.67;;
17424;SDS011;8830;50.978;5.058;2023-03-14T02:14:03;6.77;;;2.53;;
17424;SDS011;8830;50.978;5.058;2023-03-14T02:16:32;9.07;;;1.63;;
17424;SDS011;8830;50.978;5.058;2023-03-14T02:19:00;9.30;;;1.63;;
17424;SDS011;8830;50.978;5.058;2023-03-14T02:21:29;10.43;;;2.33;;
17424;SDS011;8830;50.978;5.058;2023-03-14T02:24:12;8.93;;;1.70;;
17424;SDS011;8830;50.978;5.058;2023-03-14T02:29:27;4.80;;;1.60;;
17424;SDS011;8830;50.978;5.058;2023-03-14T02:31:55;9.10;;;1.57;;
17424;SDS011;8830;50.978;5.058;2023-03-14T02:34:22;5.17;;;1.73;;
17424;SDS011;8830;50.978;5.058;2023-03-14T02:36:51;2.63;;;1.10;;
17424;SDS011;8830;50.978;5.058;2023-03-14T02:39:19;7.53;;;1.03;;
17424;SDS011;8830;50.978;5.058;2023-03-14T02:41:51;5.77;;;0.97;;
17424;SDS011;8830;50.978;5.058;2023-03-14T02:44:17;4.07;;;1.13;;
17424;SDS011;8830;50.978;5.058;2023-03-14T02:46:46;6.70;;;1.33;;
17424;SDS011;8830;50.978;5.058;2023-03-14T02:49:13;7.73;;;1.73;;
17424;SDS011;8830;50.978;5.058;2023-03-14T02:51:41;3.30;;;1.23;;
17424;SDS011;8830;50.978;5.058;2023-03-14T02:54:11;3.07;;;0.77;;
17424;SDS011;8830;50.978;5.058;2023-03-14T02:56:39;3.93;;;0.70;;
17424;SDS011;8830;50.978;5.058;2023-03-14T02:59:06;4.03;;;1.03;;
17424;SDS011;8830;50.978;5.058;2023-03-14T03:01:33;3.97;;;1.07;;
17424;SDS011;8830;50.978;5.058;2023-03-14T03:04:02;4.37;;;1.17;;
17424;SDS011;8830;50.978;5.058;2023-03-14T03:06:29;6.33;;;1.03;;
17424;SDS011;8830;50.978;5.058;2023-03-14T03:08:56;3.27;;;1.17;;
17424;SDS011;8830;50.978;5.058;2023-03-14T03:11:23;4.53;;;1.20;;
17424;SDS011;8830;50.978;5.058;2023-03-14T03:13:50;6.27;;;1.10;;
17424;SDS011;8830;50.978;5.058;2023-03-14T03:16:17;5.23;;;0.93;;
17424;SDS011;8830;50.978;5.058;2023-03-14T03:18:43;2.23;;;0.70;;
17424;SDS011;8830;50.978;5.058;2023-03-14T03:21:12;5.73;;;1.17;;
17424;SDS011;8830;50.978;5.058;2023-03-14T03:23:39;2.73;;;0.80;;
17424;SDS011;8830;50.978;5.058;2023-03-14T03:26:06;2.10;;;1.00;;
17424;SDS011;8830;50.978;5.058;2023-03-14T03:28:35;3.83;;;1.33;;
17424;SDS011;8830;50.978;5.058;2023-03-14T03:31:06;2.70;;;1.17;;
17424;SDS011;8830;50.978;5.058;2023-03-14T03:33:33;4.67;;;1.23;;
17424;SDS011;8830;50.978;5.058;2023-03-14T03:36:00;3.97;;;1.30;;
17424;SDS011;8830;50.978;5.058;2023-03-14T03:38:28;2.80;;;0.77;;
17424;SDS011;8830;50.978;5.058;2023-03-14T03:40:55;6.67;;;1.20;;
17424;SDS011;8830;50.978;5.058;2023-03-14T03:43:22;4.80;;;1.63;;
17424;SDS011;8830;50.978;5.058;2023-03-14T03:45:49;6.87;;;1.40;;
17424;SDS011;8830;50.978;5.058;2023-03-14T03:48:16;3.50;;;1.57;;
17424;SDS011;8830;50.978;5.058;2023-03-14T03:50:44;6.43;;;2.60;;
17424;SDS011;8830;50.978;5.058;2023-03-14T03:53:11;7.53;;;3.00;;
17424;SDS011;8830;50.978;5.058;2023-03-14T03:55:41;9.57;;;2.93;;
17424;SDS011;8830;50.978;5.058;2023-03-14T03:58:08;8.70;;;3.53;;
17424;SDS011;8830;50.978;5.058;2023-03-14T04:00:35;8.53;;;3.53;;
17424;SDS011;8830;50.978;5.058;2023-03-14T04:03:02;9.53;;;3.97;;
17424;SDS011;8830;50.978;5.058;2023-03-14T04:05:29;7.37;;;3.20;;
17424;SDS011;8830;50.978;5.058;2023-03-14T04:07:56;8.93;;;2.67;;
17424;SDS011;8830;50.978;5.058;2023-03-14T04:10:23;11.43;;;3.50;;
17424;SDS011;8830;50.978;5.058;2023-03-14T04:12:51;10.53;;;2.60;;
17424;SDS011;8830;50.978;5.058;2023-03-14T04:15:18;9.77;;;2.00;;
17424;SDS011;8830;50.978;5.058;2023-03-14T04:17:46;4.83;;;2.20;;
17424;SDS011;8830;50.978;5.058;2023-03-14T04:20:12;6.43;;;1.80;;
17424;SDS011;8830;50.978;5.058;2023-03-14T04:22:39;6.90;;;1.60;;
17424;SDS011;8830;50.978;5.058;2023-03-14T04:25:07;2.70;;;1.37;;
17424;SDS011;8830;50.978;5.058;2023-03-14T04:27:34;4.77;;;1.87;;
17424;SDS011;8830;50.978;5.058;2023-03-14T04:30:03;5.47;;;2.43;;
17424;SDS011;8830;50.978;5.058;2023-03-14T04:32:30;10.77;;;1.90;;
17424;SDS011;8830;50.978;5.058;2023-03-14T04:34:57;7.10;;;1.57;;
17424;SDS011;8830;50.978;5.058;2023-03-14T04:37:24;7.87;;;1.70;;
17424;SDS011;8830;50.978;5.058;2023-03-14T04:39:51;4.40;;;1.20;;
17424;SDS011;8830;50.978;5.058;2023-03-14T04:42:18;4.17;;;1.57;;
17424;SDS011;8830;50.978;5.058;2023-03-14T04:44:45;6.20;;;1.40;;
17424;SDS011;8830;50.978;5.058;2023-03-14T04:47:15;3.00;;;1.27;;
17424;SDS011;8830;50.978;5.058;2023-03-14T04:49:42;4.33;;;1.50;;
17424;SDS011;8830;50.978;5.058;2023-03-14T04:52:09;9.47;;;2.17;;
17424;SDS011;8830;50.978;5.058;2023-03-14T04:54:36;4.20;;;1.50;;
17424;SDS011;8830;50.978;5.058;2023-03-14T04:57:03;3.73;;;1.53;;
17424;SDS011;8830;50.978;5.058;2023-03-14T04:59:30;4.57;;;1.30;;
17424;SDS011;8830;50.978;5.058;2023-03-14T05:01:57;5.07;;;1.40;;
17424;SDS011;8830;50.978;5.058;2023-03-14T05:04:25;5.67;;;1.40;;
17424;SDS011;8830;50.978;5.058;2023-03-14T05:06:52;3.17;;;1.43;;
17424;SDS011;8830;50.978;5.058;2023-03-14T05:09:19;3.37;;;1.37;;
17424;SDS011;8830;50.978;5.058;2023-03-14T05:11:46;4.50;;;1.40;;
17424;SDS011;8830;50.978;5.058;2023-03-14T05:14:14;4.00;;;1.30;;
17424;SDS011;8830;50.978;5.058;2023-03-14T05:16:40;3.80;;;1.43;;
17424;SDS011;8830;50.978;5.058;2023-03-14T05:19:07;7.20;;;3.27;;
17424;SDS011;8830;50.978;5.058;2023-03-14T05:21:36;2.37;;;1.10;;
17424;SDS011;8830;50.978;5.058;2023-03-14T05:24:03;5.60;;;1.40;;
17424;SDS011;8830;50.978;5.058;2023-03-14T05:26:30;5.57;;;1.40;;
17424;SDS011;8830;50.978;5.058;2023-03-14T05:28:57;2.97;;;1.37;;
17424;SDS011;8830;50.978;5.058;2023-03-14T05:31:24;2.00;;;1.33;;
17424;SDS011;8830;50.978;5.058;2023-03-14T05:33:51;3.33;;;1.33;;
17424;SDS011;8830;50.978;5.058;2023-03-14T05:36:18;2.50;;;0.87;;
17424;SDS011;8830;50.978;5.058;2023-03-14T05:38:47;3.73;;;1.00;;
17424;SDS011;8830;50.978;5.058;2023-03-14T05:41:14;1.50;;;0.83;;
17424;SDS011;8830;50.978;5.058;2023-03-14T05:43:40;2.97;;;1.10;;
17424;SDS011;8830;50.978;5.058;2023-03-14T05:46:08;2.57;;;1.30;;
17424;SDS011;8830;50.978;5.058;2023-03-14T05:48:34;2.13;;;1.00;;
17424;SDS011;8830;50.978;5.058;2023-03-14T05:51:01;4.30;;;1.20;;
17424;SDS011;8830;50.978;5.058;2023-03-14T05:53:28;3.13;;;1.37;;
17424;SDS011;8830;50.978;5.058;2023-03-14T05:55:57;3.20;;;1.20;;
17424;SDS011;8830;50.978;5.058;2023-03-14T05:58:24;2.07;;;1.20;;
17424;SDS011;8830;50.978;5.058;2023-03-14T06:00:51;1.80;;;1.07;;
17424;SDS011;8830;50.978;5.058;2023-03-14T06:03:18;3.50;;;1.70;;
17424;SDS011;8830;50.978;5.058;2023-03-14T06:05:45;4.87;;;1.30;;
17424;SDS011;8830;50.978;5.058;2023-03-14T06:08:12;1.90;;;1.00;;
17424;SDS011;8830;50.978;5.058;2023-03-14T06:10:39;1.20;;;0.90;;
17424;SDS011;8830;50.978;5.058;2023-03-14T06:13:07;5.17;;;1.13;;
17424;SDS011;8830;50.978;5.058;2023-03-14T06:15:34;2.10;;;1.37;;
17424;SDS011;8830;50.978;5.058;2023-03-14T06:18:01;3.53;;;1.40;;
17424;SDS011;8830;50.978;5.058;2023-03-14T06:20:29;2.37;;;1.10;;
17424;SDS011;8830;50.978;5.058;2023-03-14T06:22:55;6.63;;;1.53;;
17424;SDS011;8830;50.978;5.058;2023-03-14T06:25:23;3.83;;;1.40;;
17424;SDS011;8830;50.978;5.058;2023-03-14T06:27:50;3.33;;;1.53;;
17424;SDS011;8830;50.978;5.058;2023-03-14T06:30:18;6.10;;;1.70;;
17424;SDS011;8830;50.978;5.058;2023-03-14T06:32:45;5.33;;;1.73;;
17424;SDS011;8830;50.978;5.058;2023-03-14T06:35:12;2.93;;;1.70;;
17424;SDS011;8830;50.978;5.058;2023-03-14T06:37:39;2.80;;;1.50;;
17424;SDS011;8830;50.978;5.058;2023-03-14T06:40:06;4.60;;;1.77;;
17424;SDS011;8830;50.978;5.058;2023-03-14T06:42:34;4.03;;;1.60;;
17424;SDS011;8830;50.978;5.058;2023-03-14T06:45:01;3.80;;;1.60;;
17424;SDS011;8830;50.978;5.058;2023-03-14T06:47:30;2.30;;;1.57;;
17424;SDS011;8830;50.978;5.058;2023-03-14T06:49:57;3.30;;;2.10;;
17424;SDS011;8830;50.978;5.058;2023-03-14T06:52:24;1.93;;;1.27;;
17424;SDS011;8830;50.978;5.058;2023-03-14T06:54:51;5.07;;;1.53;;
17424;SDS011;8830;50.978;5.058;2023-03-14T06:57:17;4.07;;;1.57;;
17424;SDS011;8830;50.978;5.058;2023-03-14T06:59:44;3.03;;;1.60;;
17424;SDS011;8830;50.978;5.058;2023-03-14T07:02:12;2.93;;;1.40;;
17424;SDS011;8830;50.978;5.058;2023-03-14T07:04:41;2.77;;;1.43;;
17424;SDS011;8830;50.978;5.058;2023-03-14T07:07:08;3.27;;;1.77;;
17424;SDS011;8830;50.978;5.058;2023-03-14T07:09:35;5.53;;;2.63;;
17424;SDS011;8830;50.978;5.058;2023-03-14T07:12:03;4.07;;;1.97;;
17424;SDS011;8830;50.978;5.058;2023-03-14T07:14:30;3.47;;;2.13;;
17424;SDS011;8830;50.978;5.058;2023-03-14T07:16:58;3.57;;;2.30;;
17424;SDS011;8830;50.978;5.058;2023-03-14T07:19:25;3.13;;;2.07;;
17424;SDS011;8830;50.978;5.058;2023-03-14T07:21:53;3.93;;;2.50;;
17424;SDS011;8830;50.978;5.058;2023-03-14T07:24:20;5.83;;;1.87;;
17424;SDS011;8830;50.978;5.058;2023-03-14T07:26:47;3.60;;;1.80;;
17424;SDS011;8830;50.978;5.058;2023-03-14T07:29:15;2.93;;;2.00;;
17424;SDS011;8830;50.978;5.058;2023-03-14T07:31:41;2.00;;;1.60;;
17424;SDS011;8830;50.978;5.058;2023-03-14T07:34:10;3.03;;;1.30;;
17424;SDS011;8830;50.978;5.058;2023-03-14T07:36:37;2.27;;;0.87;;
17424;SDS011;8830;50.978;5.058;2023-03-14T07:39:07;0.70;;;0.63;;
17424;SDS011;8830;50.978;5.058;2023-03-14T07:41:34;2.37;;;0.80;;
17424;SDS011;8830;50.978;5.058;2023-03-14T07:44:01;3.03;;;0.80;;
17424;SDS011;8830;50.978;5.058;2023-03-14T07:46:28;0.87;;;0.60;;
17424;SDS011;8830;50.978;5.058;2023-03-14T07:48:55;2.63;;;1.00;;
17424;SDS011;8830;50.978;5.058;2023-03-14T07:51:22;0.93;;;0.70;;
17424;SDS011;8830;50.978;5.058;2023-03-14T07:53:49;1.23;;;0.60;;
17424;SDS011;8830;50.978;5.058;2023-03-14T07:56:17;3.37;;;1.00;;
17424;SDS011;8830;50.978;5.058;2023-03-14T07:58:44;1.37;;;1.00;;
17424;SDS011;8830;50.978;5.058;2023-03-14T08:01:11;2.57;;;1.07;;
17424;SDS011;8830;50.978;5.058;2023-03-14T08:03:38;0.80;;;0.77;;
17424;SDS011;8830;50.978;5.058;2023-03-14T08:06:06;2.13;;;1.40;;
17424;SDS011;8830;50.978;5.058;2023-03-14T08:08:33;2.33;;;1.60;;
17424;SDS011;8830;50.978;5.058;2023-03-14T08:11:02;2.00;;;1.53;;
17424;SDS011;8830;50.978;5.058;2023-03-14T08:13:31;3.20;;;1.63;;
17424;SDS011;8830;50.978;5.058;2023-03-14T08:15:58;2.70;;;1.23;;
17424;SDS011;8830;50.978;5.058;2023-03-14T08:18:24;3.93;;;1.00;;
17424;SDS011;8830;50.978;5.058;2023-03-14T08:20:51;4.90;;;0.93;;
17424;SDS011;8830;50.978;5.058;2023-03-14T08:23:18;0.87;;;0.73;;
17424;SDS011;8830;50.978;5.058;2023-03-14T08:25:48;1.73;;;1.00;;
17424;SDS011;8830;50.978;5.058;2023-03-14T08:28:16;3.23;;;1.77;;
17424;SDS011;8830;50.978;5.058;2023-03-14T08:30:45;2.20;;;0.70;;
17424;SDS011;8830;50.978;5.058;2023-03-14T08:33:14;2.90;;;1.10;;
17424;SDS011;8830;50.978;5.058;2023-03-14T08:35:41;3.37;;;1.10;;
17424;SDS011;8830;50.978;5.058;2023-03-14T08:38:09;1.80;;;1.00;;
17424;SDS011;8830;50.978;5.058;2023-03-14T08:40:37;2.33;;;1.10;;
17424;SDS011;8830;50.978;5.058;2023-03-14T08:43:03;4.30;;;1.20;;
17424;SDS011;8830;50.978;5.058;2023-03-14T08:45:33;7.87;;;1.83;;
17424;SDS011;8830;50.978;5.058;2023-03-14T08:48:01;5.37;;;1.90;;
17424;SDS011;8830;50.978;5.058;2023-03-14T08:50:28;3.90;;;1.60;;
17424;SDS011;8830;50.978;5.058;2023-03-14T08:52:55;2.13;;;1.30;;
17424;SDS011;8830;50.978;5.058;2023-03-14T08:55:25;2.67;;;1.20;;
17424;SDS011;8830;50.978;5.058;2023-03-14T08:57:52;1.40;;;1.30;;
17424;SDS011;8830;50.978;5.058;2023-03-14T09:00:20;1.83;;;1.30;;
17424;SDS011;8830;50.978;5.058;2023-03-14T09:02:47;2.57;;;1.30;;
17424;SDS011;8830;50.978;5.058;2023-03-14T09:05:16;1.70;;;1.10;;
17424;SDS011;8830;50.978;5.058;2023-03-14T09:07:43;2.27;;;1.20;;
17424;SDS011;8830;50.978;5.058;2023-03-14T09:10:10;1.30;;;1.13;;
17424;SDS011;8830;50.978;5.058;2023-03-14T09:12:37;1.93;;;1.33;;
17424;SDS011;8830;50.978;5.058;2023-03-14T09:15:05;1.40;;;1.20;;
17424;SDS011;8830;50.978;5.058;2023-03-14T09:17:32;2.00;;;1.33;;
17424;SDS011;8830;50.978;5.058;2023-03-14T09:20:00;1.70;;;1.60;;
17424;SDS011;8830;50.978;5.058;2023-03-14T09:22:32;4.70;;;1.53;;
17424;SDS011;8830;50.978;5.058;2023-03-14T09:25:01;2.60;;;1.00;;
17424;SDS011;8830;50.978;5.058;2023-03-14T09:27:28;1.20;;;0.70;;
17424;SDS011;8830;50.978;5.058;2023-03-14T09:29:55;4.00;;;0.90;;
17424;SDS011;8830;50.978;5.058;2023-03-14T09:32:21;1.30;;;0.63;;
17424;SDS011;8830;50.978;5.058;2023-03-14T09:34:48;1.77;;;0.87;;
17424;SDS011;8830;50.978;5.058;2023-03-14T09:37:15;2.03;;;0.70;;
17424;SDS011;8830;50.978;5.058;2023-03-14T09:39:44;2.37;;;0.80;;
17424;SDS011;8830;50.978;5.058;2023-03-14T09:42:13;1.23;;;1.13;;
17424;SDS011;8830;50.978;5.058;2023-03-14T09:44:45;2.00;;;1.10;;
17424;SDS011;8830;50.978;5.058;2023-03-14T09:47:19;2.57;;;0.77;;
17424;SDS011;8830;50.978;5.058;2023-03-14T09:49:49;3.80;;;0.77;;
17424;SDS011;8830;50.978;5.058;2023-03-14T09:52:17;2.70;;;0.83;;
17424;SDS011;8830;50.978;5.058;2023-03-14T09:54:52;2.87;;;0.97;;
17424;SDS011;8830;50.978;5.058;2023-03-14T09:57:21;3.07;;;1.00;;
17424;SDS011;8830;50.978;5.058;2023-03-14T09:59:51;3.00;;;1.10;;
17424;SDS011;8830;50.978;5.058;2023-03-14T10:02:21;3.63;;;1.00;;
17424;SDS011;8830;50.978;5.058;2023-03-14T10:04:50;3.37;;;1.27;;
17424;SDS011;8830;50.978;5.058;2023-03-14T10:07:19;1.23;;;0.60;;
17424;SDS011;8830;50.978;5.058;2023-03-14T10:09:51;1.87;;;0.70;;
17424;SDS011;8830;50.978;5.058;2023-03-14T10:12:18;1.40;;;0.80;;
17424;SDS011;8830;50.978;5.058;2023-03-14T10:14:47;1.27;;;0.60;;
17424;SDS011;8830;50.978;5.058;2023-03-14T10:17:17;1.27;;;0.70;;
17424;SDS011;8830;50.978;5.058;2023-03-14T10:19:52;2.23;;;0.60;;
17424;SDS011;8830;50.978;5.058;2023-03-14T10:22:21;2.37;;;0.47;;
17424;SDS011;8830;50.978;5.058;2023-03-14T10:24:52;0.90;;;0.50;;
17424;SDS011;8830;50.978;5.058;2023-03-14T10:27:22;0.93;;;0.60;;
17424;SDS011;8830;50.978;5.058;2023-03-14T10:29:55;4.37;;;0.73;;
17424;SDS011;8830;50.978;5.058;2023-03-14T10:32:28;2.40;;;0.60;;
17424;SDS011;8830;50.978;5.058;2023-03-14T10:35:11;3.57;;;0.80;;
17424;SDS011;8830;50.978;5.058;2023-03-14T10:37:53;2.20;;;0.63;;
17424;SDS011;8830;50.978;5.058;2023-03-14T10:40:26;3.13;;;0.97;;
17424;SDS011;8830;50.978;5.058;2023-03-14T10:42:55;0.90;;;0.40;;
17424;SDS011;8830;50.978;5.058;2023-03-14T10:45:31;1.47;;;0.60;;
17424;SDS011;8830;50.978;5.058;2023-03-14T10:48:06;0.83;;;0.40;;
17424;SDS011;8830;50.978;5.058;2023-03-14T10:50:47;0.77;;;0.33;;
17424;SDS011;8830;50.978;5.058;2023-03-14T10:53:16;1.80;;;0.60;;
17424;SDS011;8830;50.978;5.058;2023-03-14T10:55:48;2.17;;;0.70;;
17424;SDS011;8830;50.978;5.058;2023-03-14T10:58:19;0.73;;;0.60;;
17424;SDS011;8830;50.978;5.058;2023-03-14T11:00:49;1.87;;;0.60;;
17424;SDS011;8830;50.978;5.058;2023-03-14T11:03:24;2.80;;;0.87;;
17424;SDS011;8830;50.978;5.058;2023-03-14T11:05:56;2.93;;;1.23;;
17424;SDS011;8830;50.978;5.058;2023-03-14T11:08:25;1.73;;;0.80;;
17424;SDS011;8830;50.978;5.058;2023-03-14T11:11:02;1.53;;;1.03;;
17424;SDS011;8830;50.978;5.058;2023-03-14T11:13:38;2.50;;;1.10;;
17424;SDS011;8830;50.978;5.058;2023-03-14T11:16:13;2.13;;;1.40;;
17424;SDS011;8830;50.978;5.058;2023-03-14T11:18:48;1.57;;;1.30;;
17424;SDS011;8830;50.978;5.058;2023-03-14T11:21:24;1.30;;;0.90;;
17424;SDS011;8830;50.978;5.058;2023-03-14T11:24:05;1.30;;;1.20;;
17424;SDS011;8830;50.978;5.058;2023-03-14T11:26:44;1.87;;;0.80;;
17424;SDS011;8830;50.978;5.058;2023-03-14T11:29:20;2.73;;;1.03;;
17424;SDS011;8830;50.978;5.058;2023-03-14T11:31:53;2.93;;;1.03;;
17424;SDS011;8830;50.978;5.058;2023-03-14T11:34:27;6.43;;;4.30;;
17424;SDS011;8830;50.978;5.058;2023-03-14T11:36:59;1.00;;;0.87;;
17424;SDS011;8830;50.978;5.058;2023-03-14T11:39:34;2.50;;;1.10;;
17424;SDS011;8830;50.978;5.058;2023-03-14T11:42:08;3.23;;;1.00;;
17424;SDS011;8830;50.978;5.058;2023-03-14T11:44:39;2.73;;;1.10;;
17424;SDS011;8830;50.978;5.058;2023-03-14T11:47:07;3.73;;;1.10;;
17424;SDS011;8830;50.978;5.058;2023-03-14T11:49:40;2.27;;;1.00;;
17424;SDS011;8830;50.978;5.058;2023-03-14T11:52:10;1.87;;;0.80;;
17424;SDS011;8830;50.978;5.058;2023-03-14T11:54:43;2.03;;;1.10;;
17424;SDS011;8830;50.978;5.058;2023-03-14T11:57:16;6.63;;;1.50;;
17424;SDS011;8830;50.978;5.058;2023-03-14T11:59:48;2.83;;;1.00;;
17424;SDS011;8830;50.978;5.058;2023-03-14T12:02:21;4.40;;;1.20;;
17424;SDS011;8830;50.978;5.058;2023-03-14T12:04:55;3.20;;;1.03;;
17424;SDS011;8830;50.978;5.058;2023-03-14T12:07:51;2.87;;;1.00;;
17424;SDS011;8830;50.978;5.058;2023-03-14T12:10:45;2.53;;;1.13;;
17424;SDS011;8830;50.978;5.058;2023-03-14T12:13:16;5.77;;;1.47;;
17424;SDS011;8830;50.978;5.058;2023-03-14T12:15:46;4.30;;;1.30;;
17424;SDS011;8830;50.978;5.058;2023-03-14T12:18:18;3.87;;;1.30;;
17424;SDS011;8830;50.978;5.058;2023-03-14T12:20:50;3.47;;;1.33;;
17424;SDS011;8830;50.978;5.058;2023-03-14T12:23:19;2.73;;;1.20;;
17424;SDS011;8830;50.978;5.058;2023-03-14T12:25:46;1.87;;;1.00;;
17424;SDS011;8830;50.978;5.058;2023-03-14T12:28:20;2.27;;;1.10;;
17424;SDS011;8830;50.978;5.058;2023-03-14T12:30:56;5.10;;;1.00;;
17424;SDS011;8830;50.978;5.058;2023-03-14T12:33:44;2.47;;;0.70;;
17424;SDS011;8830;50.978;5.058;2023-03-14T12:36:17;6.33;;;1.03;;
17424;SDS011;8830;50.978;5.058;2023-03-14T12:39:24;4.33;;;1.10;;
17424;SDS011;8830;50.978;5.058;2023-03-14T12:42:02;7.57;;;2.03;;
17424;SDS011;8830;50.978;5.058;2023-03-14T12:44:44;7.73;;;2.13;;
17424;SDS011;8830;50.978;5.058;2023-03-14T12:50:25;9.93;;;2.63;;
17424;SDS011;8830;50.978;5.058;2023-03-14T12:55:53;7.87;;;1.77;;
17424;SDS011;8830;50.978;5.058;2023-03-14T12:58:28;9.63;;;2.10;;
17424;SDS011;8830;50.978;5.058;2023-03-14T13:00:59;8.57;;;1.90;;
17424;SDS011;8830;50.978;5.058;2023-03-14T13:03:36;11.93;;;3.50;;
17424;SDS011;8830;50.978;5.058;2023-03-14T13:06:08;9.43;;;2.73;;
17424;SDS011;8830;50.978;5.058;2023-03-14T13:08:41;7.37;;;2.73;;
17424;SDS011;8830;50.978;5.058;2023-03-14T13:11:10;12.83;;;1.87;;
17424;SDS011;8830;50.978;5.058;2023-03-14T13:13:41;7.97;;;2.37;;
17424;SDS011;8830;50.978;5.058;2023-03-14T13:16:15;11.17;;;2.60;;
17424;SDS011;8830;50.978;5.058;2023-03-14T13:18:44;9.00;;;2.33;;
17424;SDS011;8830;50.978;5.058;2023-03-14T13:21:14;11.40;;;2.07;;
17424;SDS011;8830;50.978;5.058;2023-03-14T13:23:57;10.13;;;2.50;;
17424;SDS011;8830;50.978;5.058;2023-03-14T13:26:26;10.70;;;2.43;;
17424;SDS011;8830;50.978;5.058;2023-03-14T13:29:00;10.37;;;2.47;;
17424;SDS011;8830;50.978;5.058;2023-03-14T13:31:35;5.73;;;3.20;;
17424;SDS011;8830;50.978;5.058;2023-03-14T13:34:05;4.13;;;1.67;;
17424;SDS011;8830;50.978;5.058;2023-03-14T13:36:38;9.20;;;2.23;;
17424;SDS011;8830;50.978;5.058;2023-03-14T13:39:06;6.93;;;1.50;;
17424;SDS011;8830;50.978;5.058;2023-03-14T13:41:39;6.73;;;1.50;;
17424;SDS011;8830;50.978;5.058;2023-03-14T13:44:07;4.13;;;1.70;;
17424;SDS011;8830;50.978;5.058;2023-03-14T13:46:35;4.10;;;1.97;;
17424;SDS011;8830;50.978;5.058;2023-03-14T13:49:04;4.20;;;2.83;;
17424;SDS011;8830;50.978;5.058;2023-03-14T13:51:33;4.70;;;1.30;;
17424;SDS011;8830;50.978;5.058;2023-03-14T13:54:01;5.27;;;1.97;;
17424;SDS011;8830;50.978;5.058;2023-03-14T13:56:29;8.03;;;2.20;;
17424;SDS011;8830;50.978;5.058;2023-03-14T13:58:58;10.47;;;2.27;;
17424;SDS011;8830;50.978;5.058;2023-03-14T14:01:25;6.87;;;2.37;;
17424;SDS011;8830;50.978;5.058;2023-03-14T14:03:56;6.67;;;2.27;;
17424;SDS011;8830;50.978;5.058;2023-03-14T14:06:30;6.10;;;2.07;;
17424;SDS011;8830;50.978;5.058;2023-03-14T14:08:58;4.67;;;1.83;;
17424;SDS011;8830;50.978;5.058;2023-03-14T14:11:36;8.73;;;1.90;;
17424;SDS011;8830;50.978;5.058;2023-03-14T14:14:09;7.97;;;2.23;;
17424;SDS011;8830;50.978;5.058;2023-03-14T14:16:39;8.43;;;2.03;;
17424;SDS011;8830;50.978;5.058;2023-03-14T14:19:08;6.67;;;1.90;;
17424;SDS011;8830;50.978;5.058;2023-03-14T14:21:36;13.70;;;3.73;;
17424;SDS011;8830;50.978;5.058;2023-03-14T14:24:05;9.73;;;2.40;;
17424;SDS011;8830;50.978;5.058;2023-03-14T14:26:32;10.00;;;2.40;;
17424;SDS011;8830;50.978;5.058;2023-03-14T14:29:01;12.77;;;3.10;;
17424;SDS011;8830;50.978;5.058;2023-03-14T14:31:31;28.30;;;9.43;;
17424;SDS011;8830;50.978;5.058;2023-03-14T14:33:59;11.53;;;3.30;;
17424;SDS011;8830;50.978;5.058;2023-03-14T14:36:27;10.40;;;3.37;;
17424;SDS011;8830;50.978;5.058;2023-03-14T14:38:59;13.37;;;3.33;;
17424;SDS011;8830;50.978;5.058;2023-03-14T14:41:31;7.43;;;2.07;;
17424;SDS011;8830;50.978;5.058;2023-03-14T14:44:01;22.43;;;4.07;;
17424;SDS011;8830;50.978;5.058;2023-03-14T14:46:32;16.03;;;4.00;;
17424;SDS011;8830;50.978;5.058;2023-03-14T14:49:02;8.47;;;2.30;;
17424;SDS011;8830;50.978;5.058;2023-03-14T14:51:31;11.03;;;2.30;;
17424;SDS011;8830;50.978;5.058;2023-03-14T14:54:02;10.33;;;2.67;;
17424;SDS011;8830;50.978;5.058;2023-03-14T14:56:34;11.87;;;3.07;;
17424;SDS011;8830;50.978;5.058;2023-03-14T14:59:03;9.23;;;2.67;;
17424;SDS011;8830;50.978;5.058;2023-03-14T15:01:33;8.97;;;2.27;;
17424;SDS011;8830;50.978;5.058;2023-03-14T15:04:03;6.63;;;1.83;;
17424;SDS011;8830;50.978;5.058;2023-03-14T15:06:37;6.70;;;1.57;;
17424;SDS011;8830;50.978;5.058;2023-03-14T15:09:05;4.87;;;1.67;;
17424;SDS011;8830;50.978;5.058;2023-03-14T15:11:33;6.93;;;1.13;;
17424;SDS011;8830;50.978;5.058;2023-03-14T15:14:00;8.33;;;1.63;;
17424;SDS011;8830;50.978;5.058;2023-03-14T15:16:29;4.97;;;1.20;;
17424;SDS011;8830;50.978;5.058;2023-03-14T15:18:58;3.90;;;0.90;;
17424;SDS011;8830;50.978;5.058;2023-03-14T15:21:26;4.93;;;1.40;;